createdAt,value
2017-08-30T00:00:41.898Z,74.10
2017-08-30T00:03:10.078Z,74.10
2017-08-30T00:05:38.226Z,74.50
2017-08-30T00:08:06.373Z,74.80
2017-08-30T00:10:34.578Z,75.00
2017-08-30T00:13:02.744Z,74.80
2017-08-30T00:15:30.917Z,75.00
2017-08-30T00:17:59.128Z,75.10
2017-08-30T00:20:27.282Z,75.10
2017-08-30T00:22:55.443Z,75.00
2017-08-30T00:25:41.410Z,76.00
2017-08-30T00:28:09.576Z,75.30
2017-08-30T00:30:37.749Z,75.50
2017-08-30T00:33:05.926Z,75.50
2017-08-30T00:35:34.099Z,75.70
2017-08-30T00:38:02.273Z,75.50
2017-08-30T00:40:30.485Z,75.10
2017-08-30T00:42:58.658Z,75.30
2017-08-30T00:45:26.831Z,75.30
2017-08-30T00:47:55.805Z,75.20
2017-08-30T00:50:23.969Z,75.20
2017-08-30T00:52:52.114Z,74.90
2017-08-30T00:55:20.314Z,74.70
2017-08-30T00:57:48.462Z,74.60
2017-08-30T01:00:16.624Z,74.40
2017-08-30T01:02:44.815Z,74.40
2017-08-30T01:05:12.986Z,74.30
2017-08-30T01:07:41.139Z,74.20
2017-08-30T01:10:09.347Z,74.20
2017-08-30T01:12:37.496Z,74.20
2017-08-30T01:15:05.654Z,74.60
2017-08-30T01:17:33.884Z,75.50
2017-08-30T01:20:02.053Z,74.90
2017-08-30T01:22:30.233Z,74.90
2017-08-30T01:24:58.410Z,75.10
2017-08-30T01:27:26.584Z,75.70
2017-08-30T01:29:54.747Z,75.90
2017-08-30T01:32:22.943Z,76.00
2017-08-30T01:34:51.103Z,75.80
2017-08-30T01:37:19.277Z,75.80
2017-08-30T01:39:47.451Z,75.80
2017-08-30T01:42:16.397Z,76.20
2017-08-30T01:44:44.573Z,76.00
2017-08-30T01:47:12.772Z,76.30
2017-08-30T01:49:40.948Z,76.20
2017-08-30T01:52:09.128Z,76.00
2017-08-30T01:54:37.307Z,76.10
2017-08-30T01:57:05.458Z,76.30
2017-08-30T01:59:33.610Z,76.30
2017-08-30T02:02:01.791Z,76.30
2017-08-30T02:04:29.961Z,76.30
2017-08-30T02:06:58.137Z,76.60
2017-08-30T02:09:26.333Z,76.70
2017-08-30T02:11:54.482Z,77.10
2017-08-30T02:14:22.657Z,77.40
2017-08-30T02:16:50.837Z,77.60
2017-08-30T02:19:19.751Z,77.40
2017-08-30T02:21:47.927Z,77.40
2017-08-30T02:24:16.113Z,77.90
2017-08-30T02:26:44.283Z,78.30
2017-08-30T02:29:12.430Z,78.50
2017-08-30T02:31:40.615Z,78.20
2017-08-30T02:34:08.788Z,78.20
2017-08-30T02:36:36.947Z,77.70
2017-08-30T02:39:05.904Z,78.00
2017-08-30T02:41:34.058Z,78.00
2017-08-30T02:44:02.212Z,78.10
2017-08-30T02:46:30.414Z,78.20
2017-08-30T02:48:58.589Z,78.20
2017-08-30T02:51:27.702Z,78.20
2017-08-30T02:53:55.897Z,78.10
2017-08-30T02:56:24.074Z,78.00
2017-08-30T02:58:52.249Z,77.90
2017-08-30T03:01:20.423Z,77.70
2017-08-30T03:03:48.597Z,77.90
2017-08-30T03:06:16.770Z,78.10
2017-08-30T03:08:45.979Z,78.70
2017-08-30T03:11:14.151Z,78.60
2017-08-30T03:13:42.337Z,78.90
2017-08-30T03:16:10.510Z,79.10
2017-08-30T03:18:38.680Z,79.20
2017-08-30T03:21:06.849Z,79.20
2017-08-30T03:23:35.820Z,78.90
2017-08-30T03:26:03.996Z,78.90
2017-08-30T03:28:32.165Z,79.10
2017-08-30T03:31:00.367Z,79.20
2017-08-30T03:33:29.301Z,79.80
2017-08-30T03:35:57.474Z,79.60
2017-08-30T03:38:25.650Z,79.50
2017-08-30T03:40:53.798Z,79.40
2017-08-30T03:43:21.949Z,79.20
2017-08-30T03:45:50.158Z,79.20
2017-08-30T03:48:18.313Z,79.40
2017-08-30T03:50:46.467Z,79.70
2017-08-30T03:53:14.651Z,79.80
2017-08-30T03:55:42.827Z,80.00
2017-08-30T03:58:11.006Z,80.00
2017-08-30T04:00:39.183Z,80.30
2017-08-30T04:03:07.338Z,80.90
2017-08-30T04:05:35.487Z,81.20
2017-08-30T04:08:03.668Z,81.30
2017-08-30T04:10:31.828Z,81.30
2017-08-30T04:12:59.982Z,81.30
2017-08-30T04:15:28.159Z,81.30
2017-08-30T04:17:56.327Z,81.40
2017-08-30T04:20:24.509Z,81.30
2017-08-30T04:22:52.714Z,81.50
2017-08-30T04:25:20.888Z,81.50
2017-08-30T04:27:49.057Z,81.50
2017-08-30T04:30:17.243Z,81.10
2017-08-30T04:32:45.412Z,81.40
2017-08-30T04:35:13.585Z,81.40
2017-08-30T04:37:41.776Z,82.00
2017-08-30T04:40:09.926Z,81.70
2017-08-30T04:42:38.860Z,81.00
2017-08-30T04:45:08.310Z,81.00
2017-08-30T04:47:36.513Z,80.80
2017-08-30T04:50:04.667Z,80.60
2017-08-30T04:52:32.873Z,80.40
2017-08-30T04:55:01.022Z,80.50
2017-08-30T04:57:29.189Z,80.30
2017-08-30T04:59:58.145Z,80.30
2017-08-30T05:02:26.321Z,80.20
2017-08-30T05:04:54.493Z,80.30
2017-08-30T05:07:22.881Z,80.40
2017-08-30T05:09:51.035Z,80.20
2017-08-30T05:12:19.205Z,81.10
2017-08-30T05:14:47.401Z,80.70
2017-08-30T05:17:15.555Z,81.00
2017-08-30T05:19:43.708Z,81.30
2017-08-30T05:22:11.908Z,81.60
2017-08-30T05:24:40.081Z,81.50
2017-08-30T05:27:08.254Z,81.40
2017-08-30T05:29:36.455Z,81.20
2017-08-30T05:32:04.624Z,81.50
2017-08-30T05:34:32.792Z,82.00
2017-08-30T05:37:00.970Z,82.30
2017-08-30T05:39:29.145Z,82.10
2017-08-30T05:41:57.329Z,81.50
2017-08-30T05:44:25.804Z,81.10
2017-08-30T05:46:53.965Z,80.60
2017-08-30T05:49:22.122Z,80.70
2017-08-30T05:51:50.303Z,80.90
2017-08-30T05:54:18.473Z,81.00
2017-08-30T05:56:46.653Z,80.40
2017-08-30T05:59:14.835Z,80.30
2017-08-30T06:01:43.324Z,79.40
2017-08-30T06:04:11.495Z,79.10
2017-08-30T06:06:39.678Z,78.30
2017-08-30T06:09:07.852Z,77.50
2017-08-30T06:11:36.027Z,77.10
2017-08-30T06:14:04.220Z,77.20
2017-08-30T06:16:32.397Z,75.90
2017-08-30T06:19:00.550Z,75.10
2017-08-30T06:21:28.744Z,75.10
2017-08-30T06:23:56.918Z,75.10
2017-08-30T06:26:25.086Z,75.40
2017-08-30T06:28:53.294Z,75.10
2017-08-30T06:31:21.448Z,74.50
2017-08-30T06:33:49.617Z,74.70
2017-08-30T06:36:17.821Z,73.50
2017-08-30T06:38:45.979Z,72.40
2017-08-30T06:41:14.136Z,72.30
2017-08-30T06:43:42.323Z,71.20
2017-08-30T06:46:10.495Z,70.70
2017-08-30T06:48:38.652Z,70.10
2017-08-30T06:51:06.865Z,68.70
2017-08-30T06:53:35.811Z,68.60
2017-08-30T06:56:03.981Z,68.60
2017-08-30T06:58:32.177Z,68.40
2017-08-30T07:01:00.330Z,69.20
2017-08-30T07:03:28.510Z,69.20
2017-08-30T07:05:57.619Z,68.70
2017-08-30T07:08:25.782Z,69.30
2017-08-30T07:10:53.938Z,69.50
2017-08-30T07:13:22.201Z,69.90
2017-08-30T07:15:50.374Z,68.80
2017-08-30T07:18:18.546Z,67.50
2017-08-30T07:20:46.737Z,66.40
2017-08-30T07:23:14.910Z,66.20
2017-08-30T07:25:43.063Z,65.50
2017-08-30T07:28:11.275Z,64.60
2017-08-30T07:30:39.436Z,64.10
2017-08-30T07:33:07.608Z,64.60
2017-08-30T07:35:36.537Z,64.30
2017-08-30T07:38:04.713Z,65.60
2017-08-30T07:40:32.889Z,65.10
2017-08-30T07:43:01.133Z,65.10
2017-08-30T07:45:29.290Z,63.90
2017-08-30T07:48:01.649Z,63.20
2017-08-30T07:50:31.749Z,61.60
2017-08-30T07:53:08.046Z,61.60
2017-08-30T07:55:37.206Z,61.60
2017-08-30T07:58:05.365Z,59.90
2017-08-30T08:00:33.524Z,59.70
2017-08-30T08:03:01.736Z,58.60
2017-08-30T08:05:43.813Z,57.20
2017-08-30T08:08:12.038Z,57.20
2017-08-30T08:10:40.198Z,56.00
2017-08-30T08:13:08.359Z,54.80
2017-08-30T08:15:36.558Z,54.80
2017-08-30T08:18:04.725Z,53.60
2017-08-30T08:20:32.900Z,53.50
2017-08-30T08:23:05.959Z,52.50
2017-08-30T08:25:34.245Z,50.70
2017-08-30T08:28:04.428Z,48.10
2017-08-30T08:30:32.623Z,45.30
2017-08-30T08:33:00.800Z,42.40
2017-08-30T08:35:28.993Z,40.50
2017-08-30T08:37:58.251Z,38.70
2017-08-30T08:40:26.677Z,38.20
2017-08-30T08:42:54.853Z,37.90
2017-08-30T08:45:23.054Z,37.80
2017-08-30T08:47:51.226Z,38.60
2017-08-30T08:50:19.471Z,38.90
2017-08-30T21:24:04.694Z,77.30
2017-08-30T21:26:32.869Z,78.60
2017-08-30T21:29:01.015Z,80.00
2017-08-30T21:31:29.218Z,80.10
2017-08-30T21:33:57.387Z,80.20
2017-08-30T21:36:25.691Z,81.50
2017-08-30T21:38:53.893Z,83.10
2017-08-30T21:41:22.053Z,83.10
2017-08-30T21:43:50.208Z,83.50
2017-08-30T21:46:19.168Z,82.90
2017-08-30T21:48:47.823Z,82.80
2017-08-30T21:51:16.459Z,83.00
2017-08-30T21:53:44.706Z,83.40
2017-08-30T21:56:12.888Z,84.00
2017-08-30T21:58:41.042Z,84.60
2017-08-30T22:01:09.237Z,85.60
2017-08-30T22:03:37.410Z,83.90
2017-08-30T22:06:05.583Z,83.90
2017-08-30T22:08:33.771Z,84.70
2017-08-30T22:11:01.924Z,84.50
2017-08-30T22:13:30.073Z,84.30
2017-08-30T22:15:58.256Z,84.50
2017-08-30T22:18:26.403Z,84.60
2017-08-30T22:20:54.550Z,84.00
2017-08-30T22:23:22.729Z,83.90
2017-08-30T22:25:50.881Z,85.10
2017-08-30T22:28:19.035Z,85.10
2017-08-30T22:30:47.211Z,85.00
2017-08-30T22:33:15.382Z,85.30
2017-08-30T22:35:43.554Z,85.40
2017-08-30T22:38:11.731Z,84.40
2017-08-30T22:40:39.878Z,85.60
2017-08-30T22:43:08.031Z,85.70
2017-08-30T22:45:36.210Z,86.50
2017-08-30T22:48:05.169Z,85.50
2017-08-30T22:50:33.340Z,85.50
2017-08-30T22:53:01.523Z,85.50
2017-08-30T22:55:29.683Z,86.70
2017-08-30T22:57:57.836Z,87.40
2017-08-30T23:00:26.039Z,88.30
2017-08-30T23:02:54.212Z,88.70
2017-08-30T23:05:22.681Z,89.20
2017-08-30T23:07:50.886Z,89.40
2017-08-30T23:10:19.029Z,90.20
2017-08-30T23:12:47.179Z,90.70
2017-08-30T23:15:15.373Z,90.80
2017-08-30T23:17:43.524Z,90.90
2017-08-30T23:20:11.671Z,90.60
2017-08-30T23:22:40.617Z,90.80
2017-08-30T23:25:08.785Z,90.80
2017-08-30T23:27:36.935Z,90.20
2017-08-30T23:30:05.111Z,90.30
2017-08-30T23:32:33.282Z,90.50
2017-08-30T23:35:01.430Z,90.50
2017-08-30T23:37:29.971Z,90.80
2017-08-30T23:39:58.118Z,90.60
2017-08-30T23:42:26.269Z,90.40
2017-08-30T23:44:54.480Z,90.40
2017-08-30T23:47:22.636Z,90.70
2017-08-30T23:49:50.792Z,90.30
2017-08-30T23:52:18.975Z,90.80
2017-08-30T23:54:47.910Z,90.20
2017-08-30T23:57:16.076Z,90.20
2017-08-30T23:59:44.273Z,90.10
